Time;durP1;ratioP1;P1;durP2;ratioP2;P2;SDS_P1;SDS_P2;PMS_P1;PMS_P2;Temp;Humidity;BMP_temperature;BMP_pressure;BME280_temperature;BME280_humidity;BME280_pressure;Samples;Min_cycle;Max_cycle;Signal;HPM_P1;HPM_P2
2023/07/30 00:01:05;;;;;;;1.70;0.80;;;;;;;19.96;89.91;95103.00;4354979;32;20193;-62
2023/07/30 00:03:31;;;;;;;0.33;0.33;;;;;;;19.84;89.76;95112.03;4356040;32;20194;-63
2023/07/30 00:05:56;;;;;;;0.30;0.30;;;;;;;19.90;91.39;95126.00;4356577;32;20255;-63
2023/07/30 00:08:22;;;;;;;1.73;0.67;;;;;;;19.96;91.95;95129.16;4339044;32;20189;-63
2023/07/30 00:10:48;;;;;;;0.20;0.20;;;;;;;19.85;92.50;95139.75;4349667;32;20196;-63
2023/07/30 00:13:13;;;;;;;0.33;0.33;;;;;;;19.62;92.18;95128.16;4356554;32;20252;-63
2023/07/30 00:15:39;;;;;;;0.30;0.30;;;;;;;19.60;93.55;95131.19;4356580;32;20227;-64
2023/07/30 00:18:04;;;;;;;0.30;0.30;;;;;;;19.58;93.57;95125.38;4350304;32;20182;-63
2023/07/30 00:20:29;;;;;;;0.33;0.33;;;;;;;19.43;94.10;95123.53;4354112;32;20236;-63
2023/07/30 00:22:55;;;;;;;0.20;0.20;;;;;;;19.50;93.51;95121.00;4351490;32;20186;-63
2023/07/30 00:25:20;;;;;;;0.10;0.10;;;;;;;19.58;94.36;95133.44;4341815;32;20223;-63
2023/07/30 00:27:45;;;;;;;0.40;0.40;;;;;;;19.45;93.88;95129.31;4344512;32;20201;-63
2023/07/30 00:30:11;;;;;;;0.30;0.30;;;;;;;19.54;94.14;95130.69;4351621;32;20224;-63
2023/07/30 00:32:40;;;;;;;0.10;0.10;;;;;;;19.61;94.39;95140.03;4345573;32;20197;-64
2023/07/30 00:35:06;;;;;;;0.63;0.50;;;;;;;19.63;93.69;95133.19;4359165;32;20291;-63
2023/07/30 00:37:31;;;;;;;0.30;0.30;;;;;;;19.58;94.45;95132.66;4361595;32;20188;-63
2023/07/30 00:39:56;;;;;;;0.20;0.20;;;;;;;19.41;94.24;95139.22;4359338;32;20219;-63
2023/07/30 00:42:22;;;;;;;0.20;0.20;;;;;;;19.55;94.96;95143.00;4360615;32;20203;-63
2023/07/30 00:44:47;;;;;;;0.37;0.37;;;;;;;19.52;95.28;95149.12;4342484;32;20201;-64
2023/07/30 00:47:13;;;;;;;0.67;0.40;;;;;;;19.57;95.28;95148.03;4365713;32;20252;-63
2023/07/30 00:49:38;;;;;;;0.40;0.40;;;;;;;19.61;94.88;95145.44;4344446;32;20185;-63
2023/07/30 00:52:05;;;;;;;0.43;0.43;;;;;;;19.57;94.66;95153.44;4349679;32;20200;-63
2023/07/30 00:54:30;;;;;;;1.33;0.83;;;;;;;19.67;94.88;95146.72;4338187;32;20248;-63
2023/07/30 00:56:56;;;;;;;0.50;0.50;;;;;;;19.66;94.66;95148.63;4351226;32;20203;-63
2023/07/30 00:59:21;;;;;;;0.47;0.47;;;;;;;19.70;94.29;95146.78;4357319;32;20255;-63
2023/07/30 01:01:47;;;;;;;0.20;0.20;;;;;;;19.68;94.17;95146.34;4350943;32;20193;-63
2023/07/30 01:04:15;;;;;;;0.27;0.27;;;;;;;19.69;94.32;95145.22;4360641;32;20235;-63
2023/07/30 01:06:40;;;;;;;0.70;0.43;;;;;;;19.71;94.31;95145.66;4342249;32;20205;-63
2023/07/30 01:09:05;;;;;;;0.57;0.57;;;;;;;19.67;94.11;95139.41;4352246;32;20211;-63
2023/07/30 01:11:31;;;;;;;0.30;0.30;;;;;;;19.71;94.23;95126.81;4341231;32;20201;-63
2023/07/30 01:13:57;;;;;;;0.43;0.43;;;;;;;19.60;93.19;95123.13;4357294;32;20205;-63
2023/07/30 01:16:23;;;;;;;0.30;0.30;;;;;;;19.66;93.45;95116.31;4338091;32;20190;-63
2023/07/30 01:18:49;;;;;;;0.73;0.73;;;;;;;19.74;93.25;95123.41;4348528;32;20235;-63
2023/07/30 01:21:14;;;;;;;0.33;0.33;;;;;;;19.54;93.13;95122.63;4356170;32;20177;-63
2023/07/30 01:23:39;;;;;;;0.50;0.50;;;;;;;19.65;93.77;95127.44;4339634;32;20220;-63
2023/07/30 01:26:10;;;;;;;0.40;0.40;;;;;;;19.63;93.43;95133.19;4341594;32;20185;-62
2023/07/30 01:28:39;;;;;;;0.47;0.47;;;;;;;19.50;92.91;95134.47;4356627;32;20203;-63
2023/07/30 01:31:06;;;;;;;0.17;0.17;;;;;;;19.57;93.35;95129.19;4352679;32;20186;-63
2023/07/30 01:33:32;;;;;;;0.40;0.40;;;;;;;19.58;93.46;95136.16;4336717;32;20261;-63
2023/07/30 01:35:58;;;;;;;0.40;0.40;;;;;;;19.52;93.82;95138.37;4339557;32;20193;-63
2023/07/30 01:38:25;;;;;;;0.20;0.20;;;;;;;19.44;93.60;95131.25;4348745;32;20210;-63
2023/07/30 01:40:51;;;;;;;0.47;0.47;;;;;;;19.56;93.98;95130.34;4337014;32;20200;-63
2023/07/30 01:43:16;;;;;;;0.37;0.37;;;;;;;19.58;93.78;95128.06;4360831;32;20181;-63
2023/07/30 01:45:41;;;;;;;0.47;0.47;;;;;;;19.57;93.78;95131.91;4342206;32;20176;-63
2023/07/30 01:48:08;;;;;;;1.13;0.40;;;;;;;19.65;93.69;95136.28;4346025;32;20279;-63
2023/07/30 01:50:33;;;;;;;0.10;0.10;;;;;;;19.55;93.64;95137.63;4338282;32;20236;-63
2023/07/30 01:52:58;;;;;;;0.33;0.33;;;;;;;19.61;93.68;95140.81;4341603;32;20186;-63
2023/07/30 01:55:24;;;;;;;0.20;0.20;;;;;;;19.56;93.57;95139.19;4346248;32;20207;-62
2023/07/30 01:57:49;;;;;;;0.17;0.17;;;;;;;19.57;93.94;95139.97;4341432;32;20235;-63
2023/07/30 02:00:14;;;;;;;0.20;0.20;;;;;;;19.60;93.19;95133.88;4343469;32;20235;-63
2023/07/30 02:02:40;;;;;;;0.23;0.23;;;;;;;19.54;93.00;95141.44;4346687;32;20215;-63
2023/07/30 02:05:05;;;;;;;0.37;0.37;;;;;;;19.63;93.39;95132.41;4352490;32;20201;-63
2023/07/30 02:07:30;;;;;;;0.33;0.33;;;;;;;19.46;93.32;95139.75;4347791;32;20226;-62
2023/07/30 02:09:56;;;;;;;0.27;0.27;;;;;;;19.51;93.71;95136.81;4350615;32;20188;-63
2023/07/30 02:12:21;;;;;;;1.43;0.53;;;;;;;19.55;93.31;95120.69;4352977;32;20169;-63
2023/07/30 02:14:47;;;;;;;0.47;0.47;;;;;;;19.59;93.16;95128.84;4346427;32;20227;-63
2023/07/30 02:17:12;;;;;;;0.20;0.20;;;;;;;19.34;93.03;95131.78;4350404;32;20260;-63
2023/07/30 02:19:37;;;;;;;0.20;0.20;;;;;;;19.42;94.05;95138.09;4340510;32;20293;-62
2023/07/30 02:22:03;;;;;;;0.63;0.63;;;;;;;19.39;93.16;95136.91;4335767;32;20217;-63
2023/07/30 02:24:28;;;;;;;0.27;0.27;;;;;;;19.29;93.79;95137.47;4345593;32;20185;-63
2023/07/30 02:26:54;;;;;;;0.50;0.50;;;;;;;19.39;94.51;95138.81;4341484;32;20231;-63
2023/07/30 02:29:19;;;;;;;0.20;0.20;;;;;;;19.41;93.87;95136.53;4333866;32;20191;-62
2023/07/30 02:31:44;;;;;;;0.20;0.20;;;;;;;19.32;94.00;95126.00;4359852;32;20189;-63
2023/07/30 02:34:10;;;;;;;0.23;0.23;;;;;;;19.25;93.50;95133.16;4352088;32;20182;-63
2023/07/30 02:36:35;;;;;;;1.33;1.00;;;;;;;19.35;94.43;95127.19;4340655;32;20169;-62
2023/07/30 02:39:01;;;;;;;0.77;0.77;;;;;;;19.39;93.96;95128.03;4334625;32;20228;-62
2023/07/30 02:41:26;;;;;;;0.40;0.40;;;;;;;19.33;92.54;95124.09;4338902;32;20185;-63
2023/07/30 02:43:51;;;;;;;1.27;0.97;;;;;;;19.32;92.69;95125.22;4344144;32;20260;-63
2023/07/30 02:46:17;;;;;;;0.37;0.37;;;;;;;19.32;94.31;95122.53;4339117;32;20185;-63
2023/07/30 02:48:42;;;;;;;7.80;0.83;;;;;;;19.40;94.14;95113.47;4339660;32;20189;-63
2023/07/30 02:51:07;;;;;;;0.70;0.70;;;;;;;19.20;94.04;95118.84;4360850;32;20278;-63
2023/07/30 02:53:33;;;;;;;0.47;0.47;;;;;;;19.19;94.35;95127.25;4359105;32;20177;-63
2023/07/30 02:55:58;;;;;;;0.43;0.43;;;;;;;19.14;95.41;95128.31;4349303;32;20193;-63
2023/07/30 02:58:23;;;;;;;0.50;0.50;;;;;;;19.17;95.36;95132.22;4353113;32;20251;-63
2023/07/30 03:00:48;;;;;;;0.40;0.40;;;;;;;19.10;95.66;95143.63;4356518;32;20239;-63
2023/07/30 03:03:14;;;;;;;0.80;0.80;;;;;;;19.14;95.76;95139.06;4344897;32;20190;-63
2023/07/30 03:05:43;;;;;;;0.23;0.23;;;;;;;19.16;96.22;95147.56;4336642;32;20203;-63
2023/07/30 03:08:08;;;;;;;0.20;0.20;;;;;;;19.13;95.29;95142.88;4343002;32;20279;-63
2023/07/30 03:10:33;;;;;;;0.27;0.27;;;;;;;18.98;95.77;95141.03;4350120;32;20221;-63
2023/07/30 03:12:59;;;;;;;0.40;0.40;;;;;;;18.85;97.48;95136.91;4340733;32;20195;-63
2023/07/30 03:15:24;;;;;;;0.50;0.50;;;;;;;18.92;98.17;95141.62;4353513;32;20196;-63
2023/07/30 03:17:49;;;;;;;1.43;0.97;;;;;;;18.96;97.83;95159.41;4358953;32;20200;-61
2023/07/30 03:20:15;;;;;;;1.80;0.80;;;;;;;18.92;97.11;95163.94;4345769;32;20189;-61
2023/07/30 03:22:40;;;;;;;2.50;1.00;;;;;;;18.91;97.27;95167.78;4341039;32;20275;-63
2023/07/30 03:25:05;;;;;;;0.50;0.50;;;;;;;18.92;97.60;95176.59;4345747;32;20186;-62
2023/07/30 03:27:31;;;;;;;0.30;0.30;;;;;;;18.88;98.54;95163.09;4338076;32;20198;-61
2023/07/30 03:29:56;;;;;;;0.83;0.83;;;;;;;18.85;99.27;95163.78;4338212;32;20185;-61
2023/07/30 03:32:21;;;;;;;0.50;0.50;;;;;;;18.78;100.00;95163.63;4354473;32;20196;-62
2023/07/30 03:34:47;;;;;;;0.87;0.87;;;;;;;18.76;99.74;95165.88;4356160;32;20200;-61
2023/07/30 03:37:12;;;;;;;0.67;0.67;;;;;;;18.82;99.90;95170.63;4335529;32;20185;-62
2023/07/30 03:39:37;;;;;;;0.37;0.37;;;;;;;18.73;100.00;95161.97;4347653;32;20298;-62
2023/07/30 03:42:03;;;;;;;0.40;0.40;;;;;;;18.72;100.00;95165.00;4337860;32;20187;-61
2023/07/30 03:44:28;;;;;;;1.47;1.37;;;;;;;18.73;100.00;95161.19;4347819;32;20204;-62
2023/07/30 03:46:53;;;;;;;0.77;0.77;;;;;;;18.69;100.00;95171.88;4358880;32;20196;-61
2023/07/30 03:49:19;;;;;;;0.67;0.67;;;;;;;18.70;100.00;95170.75;4343246;32;20291;-62
2023/07/30 03:51:44;;;;;;;0.50;0.23;;;;;;;18.70;100.00;95168.06;4358083;32;20208;-62
2023/07/30 03:54:09;;;;;;;0.93;0.70;;;;;;;18.61;100.00;95167.44;4346966;32;20230;-61
2023/07/30 03:56:35;;;;;;;0.60;0.60;;;;;;;18.55;100.00;95172.28;4347930;32;20169;-62
2023/07/30 03:59:00;;;;;;;0.70;0.70;;;;;;;18.53;100.00;95174.53;4345910;32;20235;-61
2023/07/30 04:01:25;;;;;;;0.47;0.47;;;;;;;18.53;100.00;95169.16;4346879;32;20216;-61
2023/07/30 04:03:51;;;;;;;0.40;0.40;;;;;;;18.54;100.00;95175.31;4347174;32;20192;-62
2023/07/30 04:06:16;;;;;;;0.90;0.90;;;;;;;18.53;100.00;95181.78;4357106;32;20174;-62
2023/07/30 04:08:42;;;;;;;3.40;1.03;;;;;;;18.52;100.00;95174.88;4357217;32;20231;-62
2023/07/30 04:11:07;;;;;;;0.50;0.50;;;;;;;18.50;100.00;95169.84;4344599;32;23073;-61
2023/07/30 04:13:33;;;;;;;0.90;0.90;;;;;;;18.46;100.00;95174.38;4352268;32;20219;-61
2023/07/30 04:15:58;;;;;;;0.40;0.40;;;;;;;18.55;100.00;95176.84;4339990;32;20194;-61
2023/07/30 04:18:23;;;;;;;0.30;0.30;;;;;;;18.57;100.00;95176.50;4341284;32;20180;-62
2023/07/30 04:20:48;;;;;;;0.30;0.30;;;;;;;18.61;100.00;95163.97;4344352;32;20293;-62
2023/07/30 04:23:14;;;;;;;0.80;0.80;;;;;;;18.56;100.00;95170.34;4352510;32;20228;-62
2023/07/30 04:25:39;;;;;;;0.30;0.20;;;;;;;18.55;100.00;95177.63;4349847;32;20219;-61
2023/07/30 04:28:04;;;;;;;0.47;0.47;;;;;;;18.49;100.00;95179.06;4347840;32;20200;-62
2023/07/30 04:30:30;;;;;;;1.23;1.00;;;;;;;18.56;100.00;95181.09;4360906;32;20239;-61
2023/07/30 04:32:55;;;;;;;0.83;0.83;;;;;;;18.59;100.00;95183.13;4371678;32;20249;-62
2023/07/30 04:35:20;;;;;;;0.73;0.73;;;;;;;18.60;100.00;95181.22;4347733;32;20235;-61
2023/07/30 04:37:46;;;;;;;0.30;0.30;;;;;;;18.57;100.00;95189.94;4344572;32;20241;-61
2023/07/30 04:40:11;;;;;;;0.50;0.50;;;;;;;18.49;100.00;95191.69;4342726;32;20219;-62
2023/07/30 04:42:36;;;;;;;0.43;0.43;;;;;;;18.39;100.00;95195.66;4345379;32;20233;-62
2023/07/30 04:45:02;;;;;;;0.60;0.60;;;;;;;18.28;100.00;95191.94;4347974;32;20212;-62
2023/07/30 04:47:27;;;;;;;0.30;0.30;;;;;;;18.46;100.00;95198.53;4349816;32;20207;-62
2023/07/30 04:49:52;;;;;;;0.20;0.20;;;;;;;18.39;100.00;95203.72;4346574;32;20195;-62
2023/07/30 04:52:19;;;;;;;0.40;0.37;;;;;;;18.41;100.00;95201.47;4360189;32;20269;-62
2023/07/30 04:54:44;;;;;;;0.83;0.83;;;;;;;18.43;100.00;95196.53;4341419;32;20245;-62
2023/07/30 04:57:10;;;;;;;0.73;0.57;;;;;;;18.54;99.87;95205.63;4348283;32;20231;-62
2023/07/30 04:59:35;;;;;;;0.70;0.70;;;;;;;18.57;99.08;95211.44;4346433;32;20185;-61
2023/07/30 05:02:01;;;;;;;0.27;0.27;;;;;;;18.68;98.53;95217.91;4353197;32;20227;-61
2023/07/30 05:04:26;;;;;;;0.60;0.60;;;;;;;18.62;98.21;95213.91;4349923;32;20186;-61
2023/07/30 05:06:51;;;;;;;0.40;0.40;;;;;;;18.66;97.98;95220.16;4346841;32;20204;-61
2023/07/30 05:09:17;;;;;;;0.47;0.47;;;;;;;18.66;98.32;95226.31;4340390;32;20178;-62
2023/07/30 05:11:42;;;;;;;6.63;0.90;;;;;;;18.63;98.06;95231.59;4341361;32;20184;-61
2023/07/30 05:14:07;;;;;;;0.90;0.90;;;;;;;18.70;97.35;95226.41;4352912;32;20272;-62
2023/07/30 05:16:33;;;;;;;0.63;0.63;;;;;;;18.70;97.68;95229.09;4357221;32;20181;-61
2023/07/30 05:18:58;;;;;;;0.50;0.50;;;;;;;18.80;97.66;95217.81;4347317;32;20185;-61
2023/07/30 05:21:23;;;;;;;0.67;0.67;;;;;;;18.82;97.02;95226.31;4342622;32;20204;-61
2023/07/30 05:23:49;;;;;;;0.90;0.90;;;;;;;18.76;96.83;95214.25;4346558;32;20228;-62
2023/07/30 05:26:14;;;;;;;0.40;0.40;;;;;;;18.70;96.92;95221.81;4342098;32;20173;-61
2023/07/30 05:28:39;;;;;;;0.10;0.10;;;;;;;18.73;97.30;95225.69;4345889;32;20227;-61
2023/07/30 05:31:05;;;;;;;0.40;0.40;;;;;;;18.82;96.67;95229.00;4343297;32;20181;-62
2023/07/30 05:33:30;;;;;;;0.43;0.43;;;;;;;18.85;97.32;95241.75;4343717;32;20221;-62
2023/07/30 05:35:56;;;;;;;0.70;0.70;;;;;;;18.82;96.65;95240.53;4346140;32;20196;-62
2023/07/30 05:38:21;;;;;;;0.60;0.60;;;;;;;18.87;96.48;95240.28;4345947;32;20255;-61
2023/07/30 05:40:47;;;;;;;0.60;0.60;;;;;;;18.94;96.74;95236.94;4348681;32;20191;-62
2023/07/30 05:43:12;;;;;;;0.70;0.70;;;;;;;18.94;96.42;95242.34;4342936;32;20200;-62
2023/07/30 05:45:38;;;;;;;0.40;0.30;;;;;;;18.94;95.75;95246.94;4338569;32;20296;-61
2023/07/30 05:48:03;;;;;;;0.80;0.80;;;;;;;18.98;95.88;95247.78;4334178;32;20226;-62
2023/07/30 05:50:28;;;;;;;0.40;0.40;;;;;;;19.00;95.18;95246.31;4351673;32;20181;-62
2023/07/30 05:52:54;;;;;;;1.03;0.83;;;;;;;19.10;94.36;95247.72;4343452;32;20177;-61
2023/07/30 05:55:19;;;;;;;0.80;0.80;;;;;;;19.13;94.59;95247.78;4348869;32;20259;-62
2023/07/30 05:57:44;;;;;;;0.50;0.50;;;;;;;19.07;94.27;95243.81;4346296;32;20196;-62
2023/07/30 06:00:10;;;;;;;1.03;1.03;;;;;;;19.08;94.46;95248.06;4343194;32;20189;-61
2023/07/30 06:02:35;;;;;;;0.63;0.63;;;;;;;19.23;93.34;95239.19;4359515;32;20181;-61
2023/07/30 06:05:01;;;;;;;0.83;0.83;;;;;;;19.20;93.71;95239.88;4343817;32;20232;-61
2023/07/30 06:07:26;;;;;;;0.40;0.40;;;;;;;19.29;92.72;95238.91;4347103;32;20188;-61
2023/07/30 06:09:52;;;;;;;0.40;0.40;;;;;;;19.28;92.30;95240.03;4344807;32;20268;-62
2023/07/30 06:12:17;;;;;;;1.13;1.13;;;;;;;19.36;92.46;95247.91;4355479;32;20299;-61
2023/07/30 06:14:42;;;;;;;0.57;0.57;;;;;;;19.43;91.65;95252.69;4356238;32;20198;-62
2023/07/30 06:17:07;;;;;;;0.80;0.80;;;;;;;19.46;91.97;95246.59;4326722;32;20290;-62
2023/07/30 06:19:33;;;;;;;0.50;0.50;;;;;;;19.42;91.97;95245.72;4338311;32;20260;-61
2023/07/30 06:21:58;;;;;;;0.50;0.50;;;;;;;19.49;92.26;95245.91;4346083;32;20211;-62
2023/07/30 06:24:23;;;;;;;0.27;0.27;;;;;;;19.51;92.11;95243.66;4345682;32;20203;-62
2023/07/30 06:26:49;;;;;;;0.47;0.47;;;;;;;19.61;90.76;95247.69;4334218;32;20185;-62
2023/07/30 06:29:14;;;;;;;0.60;0.60;;;;;;;19.66;90.75;95240.13;4336452;32;20181;-62
2023/07/30 06:31:40;;;;;;;0.43;0.43;;;;;;;19.73;90.55;95244.91;4339779;32;20182;-61
2023/07/30 06:34:06;;;;;;;0.67;0.67;;;;;;;19.72;90.73;95254.88;4342856;32;20181;-61
2023/07/30 06:36:31;;;;;;;0.43;0.43;;;;;;;19.84;90.42;95245.87;4332928;32;20216;-62
2023/07/30 06:38:56;;;;;;;0.40;0.40;;;;;;;19.89;89.22;95249.09;4332488;32;20177;-61
2023/07/30 06:41:22;;;;;;;0.47;0.47;;;;;;;19.98;89.63;95250.78;4333508;32;20182;-62
2023/07/30 06:43:47;;;;;;;0.37;0.37;;;;;;;20.09;89.38;95252.56;4344308;32;20170;-61
2023/07/30 06:46:12;;;;;;;0.40;0.40;;;;;;;20.09;89.59;95255.25;4331821;32;20208;-61
2023/07/30 06:48:38;;;;;;;0.50;0.50;;;;;;;20.20;89.83;95247.34;4344722;32;20383;-62
2023/07/30 06:51:07;;;;;;;1.27;0.77;;;;;;;20.17;89.75;95248.06;4324962;32;20190;-62
2023/07/30 06:53:32;;;;;;;0.70;0.70;;;;;;;20.25;88.14;95260.53;4327972;32;20204;-62
2023/07/30 06:55:58;;;;;;;0.20;0.20;;;;;;;20.36;87.96;95253.44;4340629;32;20189;-62
2023/07/30 06:58:23;;;;;;;0.57;0.57;;;;;;;20.44;88.29;95249.75;4323967;32;20173;-61
2023/07/30 07:00:48;;;;;;;0.50;0.50;;;;;;;20.55;88.26;95252.66;4335781;32;20231;-62
2023/07/30 07:03:14;;;;;;;0.43;0.43;;;;;;;20.63;86.82;95248.16;4338517;32;20239;-61
2023/07/30 07:05:39;;;;;;;0.47;0.47;;;;;;;20.70;86.12;95251.00;4339391;32;20260;-61
2023/07/30 07:08:05;;;;;;;0.20;0.20;;;;;;;20.72;86.71;95254.09;4326252;32;20280;-61
2023/07/30 07:10:31;;;;;;;0.47;0.47;;;;;;;20.80;84.87;95255.78;4327422;32;20239;-62
2023/07/30 07:12:56;;;;;;;3.80;0.70;;;;;;;20.78;85.14;95256.16;4336483;32;20181;-62
2023/07/30 07:15:21;;;;;;;0.37;0.37;;;;;;;20.81;85.99;95260.03;4340883;32;20193;-62
2023/07/30 07:17:46;;;;;;;0.20;0.20;;;;;;;20.88;85.12;95260.16;4342869;32;20255;-61
2023/07/30 07:20:12;;;;;;;0.57;0.57;;;;;;;20.96;84.03;95258.34;4342078;32;20185;-61
2023/07/30 07:22:37;;;;;;;2.33;0.63;;;;;;;21.06;84.46;95249.66;4339086;32;21870;-62
2023/07/30 07:25:03;;;;;;;1.70;0.60;;;;;;;21.00;85.70;95261.88;4340350;32;20211;-62
2023/07/30 07:27:28;;;;;;;1.00;0.93;;;;;;;20.88;84.81;95262.84;4340242;32;20181;-62
2023/07/30 07:29:53;;;;;;;0.57;0.57;;;;;;;20.86;84.54;95273.22;4340955;32;20185;-61
2023/07/30 07:32:19;;;;;;;0.40;0.40;;;;;;;21.03;83.66;95267.31;4341239;32;20186;-62
2023/07/30 07:34:48;;;;;;;0.20;0.20;;;;;;;21.05;82.60;95262.34;4348008;32;20243;-61
2023/07/30 07:37:18;;;;;;;0.30;0.30;;;;;;;21.13;83.67;95265.94;4344122;32;20199;-61
2023/07/30 07:39:44;;;;;;;0.30;0.30;;;;;;;21.27;83.79;95261.56;4347673;32;20188;-62
2023/07/30 07:42:09;;;;;;;0.40;0.40;;;;;;;21.15;83.85;95259.06;4352766;32;20264;-62
2023/07/30 07:44:35;;;;;;;0.43;0.43;;;;;;;21.09;83.12;95259.72;4345241;32;20196;-61
2023/07/30 07:47:01;;;;;;;0.93;0.93;;;;;;;21.08;83.10;95264.34;4367380;32;20209;-62
2023/07/30 07:49:26;;;;;;;0.53;0.53;;;;;;;21.14;83.77;95262.91;4356867;32;20185;-61
2023/07/30 07:51:51;;;;;;;0.43;0.43;;;;;;;21.27;82.48;95272.38;4348526;32;20220;-62
2023/07/30 07:54:16;;;;;;;0.53;0.53;;;;;;;21.34;82.56;95270.94;4357223;32;20211;-62
2023/07/30 07:56:42;;;;;;;0.27;0.27;;;;;;;21.47;80.74;95264.94;4351089;32;20195;-61
2023/07/30 07:59:07;;;;;;;0.53;0.40;;;;;;;21.58;80.30;95265.88;4344069;32;26336;-62
2023/07/30 08:01:32;;;;;;;0.10;0.10;;;;;;;21.65;80.36;95272.50;4351067;32;20222;-61
2023/07/30 08:03:58;;;;;;;0.40;0.40;;;;;;;21.59;80.89;95272.06;4348947;32;20248;-62
2023/07/30 08:06:24;;;;;;;0.43;0.43;;;;;;;21.43;81.45;95271.44;4341071;32;20192;-61
2023/07/30 08:08:49;;;;;;;0.57;0.57;;;;;;;21.34;81.13;95276.31;4344516;32;20189;-62
2023/07/30 08:11:14;;;;;;;0.57;0.57;;;;;;;21.29;81.73;95273.94;4359130;32;20210;-61
2023/07/30 08:13:40;;;;;;;0.47;0.47;;;;;;;21.45;81.04;95271.84;4357136;32;20260;-62
2023/07/30 08:16:05;;;;;;;0.40;0.40;;;;;;;21.60;79.04;95268.22;4357959;32;20195;-62
2023/07/30 08:18:30;;;;;;;0.40;0.40;;;;;;;21.73;78.86;95269.56;4342779;32;20201;-61
2023/07/30 08:20:56;;;;;;;1.07;1.07;;;;;;;21.67;79.23;95262.13;4343180;32;20197;-62
2023/07/30 08:23:21;;;;;;;0.40;0.37;;;;;;;21.67;79.54;95281.03;4341474;32;20231;-61
2023/07/30 08:25:47;;;;;;;0.40;0.40;;;;;;;21.61;78.87;95269.78;4355847;32;20243;-62
2023/07/30 08:28:12;;;;;;;0.47;0.47;;;;;;;21.58;78.03;95286.72;4349888;32;20244;-62
2023/07/30 08:30:37;;;;;;;0.50;0.50;;;;;;;21.65;77.52;95277.91;4337813;32;20284;-62
2023/07/30 08:33:03;;;;;;;0.63;0.63;;;;;;;21.76;77.68;95274.22;4337812;32;20227;-62
2023/07/30 08:35:28;;;;;;;0.43;0.43;;;;;;;21.75;78.56;95269.97;4337674;32;20227;-62
2023/07/30 08:37:54;;;;;;;0.37;0.37;;;;;;;21.70;77.11;95266.81;4341954;32;20205;-62
2023/07/30 08:40:23;;;;;;;0.20;0.20;;;;;;;21.66;77.78;95264.06;4356145;32;20196;-62
2023/07/30 08:42:51;;;;;;;0.40;0.40;;;;;;;21.66;77.44;95268.66;4359311;32;20283;-62
2023/07/30 08:45:17;;;;;;;0.23;0.23;;;;;;;21.59;77.61;95269.38;4336166;32;20240;-62
2023/07/30 08:47:42;;;;;;;0.43;0.37;;;;;;;21.52;77.41;95261.16;4337166;32;20185;-61
2023/07/30 08:50:08;;;;;;;0.10;0.10;;;;;;;21.53;77.26;95257.31;4342585;32;20252;-62
2023/07/30 08:52:35;;;;;;;0.40;0.40;;;;;;;21.52;77.07;95263.84;4346033;32;20189;-61
2023/07/30 08:55:01;;;;;;;0.50;0.50;;;;;;;21.63;77.32;95262.06;4336276;32;20177;-62
2023/07/30 08:57:29;;;;;;;0.47;0.47;;;;;;;21.69;76.79;95266.03;4344122;32;20185;-61
2023/07/30 09:00:08;;;;;;;1.00;0.80;;;;;;;21.80;76.80;95255.38;4342600;32;20193;-62
2023/07/30 09:02:37;;;;;;;0.27;0.27;;;;;;;21.87;76.68;95245.41;4344715;32;20173;-62
2023/07/30 09:05:04;;;;;;;0.83;0.83;;;;;;;21.97;75.68;95232.41;4351201;32;20197;-62
2023/07/30 09:07:29;;;;;;;0.20;0.20;;;;;;;21.87;76.15;95253.53;4354971;32;20200;-62
2023/07/30 09:09:55;;;;;;;0.40;0.40;;;;;;;21.90;76.37;95249.31;4345618;32;20182;-61
2023/07/30 09:12:26;;;;;;;0.23;0.23;;;;;;;21.99;74.99;95238.25;4342868;32;20189;-62
2023/07/30 09:14:51;;;;;;;0.73;0.73;;;;;;;22.11;74.15;95246.13;4342684;32;20236;-62
2023/07/30 09:17:18;;;;;;;0.60;0.60;;;;;;;22.12;74.27;95234.16;4335214;32;20200;-62
2023/07/30 09:19:43;;;;;;;0.57;0.50;;;;;;;22.07;73.18;95231.78;4356034;32;20219;-61
2023/07/30 09:22:09;;;;;;;0.20;0.20;;;;;;;22.18;73.27;95227.28;4357981;32;20174;-61
2023/07/30 09:24:34;;;;;;;0.60;0.60;;;;;;;22.25;71.25;95219.25;4356605;32;20286;-62
2023/07/30 09:27:03;;;;;;;0.40;0.40;;;;;;;22.25;72.68;95233.53;4358652;32;20192;-61
2023/07/30 09:29:28;;;;;;;0.50;0.50;;;;;;;22.33;71.70;95222.81;4339095;32;20177;-61
2023/07/30 09:31:55;;;;;;;0.17;0.17;;;;;;;22.28;69.94;95218.50;4353053;32;20234;-62
2023/07/30 09:34:22;;;;;;;0.50;0.50;;;;;;;22.33;69.93;95228.22;4343134;32;20192;-62
2023/07/30 09:36:50;;;;;;;0.60;0.60;;;;;;;22.28;67.98;95229.31;4353987;32;20217;-61
2023/07/30 09:39:19;;;;;;;0.60;0.60;;;;;;;22.37;69.14;95221.69;4348372;32;20185;-61
2023/07/30 09:41:45;;;;;;;1.50;0.50;;;;;;;22.41;67.20;95217.13;4350448;32;20190;-62
2023/07/30 09:44:11;;;;;;;0.37;0.37;;;;;;;22.44;68.42;95219.06;4353295;32;20192;-62
2023/07/30 09:46:45;;;;;;;0.33;0.33;;;;;;;22.43;68.45;95224.84;4344518;32;20200;-62
2023/07/30 09:49:10;;;;;;;0.63;0.63;;;;;;;22.43;69.38;95217.53;4350868;32;20185;-62
2023/07/30 09:51:42;;;;;;;0.30;0.30;;;;;;;22.50;71.14;95212.16;4343899;32;20250;-62
2023/07/30 09:54:08;;;;;;;0.20;0.20;;;;;;;22.59;68.85;95219.97;4351933;32;20287;-62
2023/07/30 09:56:38;;;;;;;0.40;0.40;;;;;;;22.62;70.82;95208.41;4348393;32;20185;-62
2023/07/30 09:59:05;;;;;;;0.50;0.50;;;;;;;22.55;68.71;95206.41;4340785;32;20197;-62
2023/07/30 10:01:31;;;;;;;0.20;0.20;;;;;;;22.56;69.56;95213.38;4350105;32;20208;-61
2023/07/30 10:03:57;;;;;;;0.20;0.20;;;;;;;22.42;67.53;95218.66;4339775;32;20193;-61
2023/07/30 10:06:27;;;;;;;0.50;0.50;;;;;;;22.41;69.42;95222.53;4338615;32;20208;-62
2023/07/30 10:08:57;;;;;;;0.40;0.40;;;;;;;22.48;69.35;95219.88;4332405;32;20259;-61
2023/07/30 10:11:23;;;;;;;0.40;0.40;;;;;;;22.63;68.84;95229.69;4346540;32;20220;-62
2023/07/30 10:13:49;;;;;;;0.40;0.40;;;;;;;22.74;68.71;95234.41;4353541;32;20184;-64
2023/07/30 10:16:16;;;;;;;0.40;0.40;;;;;;;22.74;65.05;95229.78;4333743;32;20174;-62
2023/07/30 10:18:43;;;;;;;0.30;0.30;;;;;;;22.72;66.16;95240.19;4336299;32;20188;-61
2023/07/30 10:21:10;;;;;;;0.33;0.33;;;;;;;22.54;66.07;95236.53;4348196;32;20176;-62
2023/07/30 10:23:36;;;;;;;0.60;0.60;;;;;;;22.25;64.32;95243.56;4339067;32;20219;-62
2023/07/30 10:26:11;;;;;;;0.00;0.00;;;;;;;21.86;68.96;95243.09;4348443;32;20200;-62
2023/07/30 10:28:38;;;;;;;0.20;0.20;;;;;;;21.77;70.22;95254.19;4336955;32;20227;-61
2023/07/30 10:31:08;;;;;;;0.03;0.03;;;;;;;21.57;70.71;95252.75;4348167;32;20219;-62
2023/07/30 10:33:53;;;;;;;0.30;0.30;;;;;;;21.51;72.27;95249.59;4338565;32;20183;-62
2023/07/30 10:36:32;;;;;;;0.10;0.10;;;;;;;21.53;70.98;95251.91;4338157;32;20227;-64
2023/07/30 10:39:01;;;;;;;0.30;0.30;;;;;;;21.58;72.35;95249.69;4332478;32;20207;-62
2023/07/30 10:41:26;;;;;;;0.10;0.10;;;;;;;21.75;72.21;95242.97;4352698;32;20252;-61
2023/07/30 10:43:53;;;;;;;0.57;0.57;;;;;;;21.90;73.20;95252.78;4341595;32;20273;-62
2023/07/30 10:46:19;;;;;;;0.67;0.67;;;;;;;22.03;71.23;95247.94;4340019;32;20270;-62
2023/07/30 10:48:46;;;;;;;0.30;0.30;;;;;;;22.19;71.84;95245.06;4338234;32;20182;-61
2023/07/30 10:51:20;;;;;;;0.47;0.47;;;;;;;22.31;72.25;95236.69;4348933;32;20338;-61
2023/07/30 10:53:46;;;;;;;0.87;0.87;;;;;;;22.42;70.35;95240.28;4346746;32;20241;-62
2023/07/30 10:56:13;;;;;;;0.73;0.73;;;;;;;22.53;70.80;95226.88;4345879;32;20221;-62
2023/07/30 10:58:38;;;;;;;2.13;2.03;;;;;;;22.62;71.31;95222.72;4344004;32;22003;-61
2023/07/30 11:01:08;;;;;;;0.40;0.40;;;;;;;22.75;71.10;95219.72;4340901;32;20208;-61
2023/07/30 11:03:34;;;;;;;0.30;0.30;;;;;;;22.83;69.29;95222.16;4326602;32;20259;-61
2023/07/30 11:06:01;;;;;;;1.03;1.00;;;;;;;22.93;69.00;95215.25;4335481;32;20192;-62
2023/07/30 11:08:39;;;;;;;0.47;0.47;;;;;;;22.95;68.74;95212.97;4350754;32;20256;-61
2023/07/30 11:11:07;;;;;;;3.13;2.50;;;;;;;22.88;70.93;95204.78;4358565;32;20184;-61
2023/07/30 11:13:43;;;;;;;1.70;1.60;;;;;;;22.91;70.19;95217.56;4348138;32;20217;-61
2023/07/30 11:16:09;;;;;;;0.60;0.60;;;;;;;23.06;68.88;95221.19;4319905;32;21188;-61
2023/07/30 11:18:36;;;;;;;0.17;0.17;;;;;;;23.04;68.96;95220.78;4340455;32;20193;-62
2023/07/30 11:21:14;;;;;;;0.87;0.87;;;;;;;23.08;67.88;95219.63;4323677;32;20226;-62
2023/07/30 11:23:41;;;;;;;0.67;0.57;;;;;;;23.04;69.48;95221.56;4332610;32;20255;-62
2023/07/30 11:26:08;;;;;;;0.10;0.10;;;;;;;23.03;68.59;95211.88;4324046;32;20196;-61